createdAt,value
2022-10-14T00:00:11.064Z,11.12
2022-10-14T00:07:13.075Z,8.12
2022-10-14T00:08:11.064Z,9.08
2022-10-14T00:09:11.064Z,10.08
2022-10-14T00:10:11.064Z,10.20
2022-10-14T00:11:12.073Z,9.40
2022-10-14T00:12:11.061Z,11.14
2022-10-14T00:13:11.065Z,10.04
2022-10-14T00:14:13.072Z,9.58
2022-10-14T00:15:11.065Z,10.62
2022-10-14T00:16:15.066Z,8.54
2022-10-14T00:17:11.063Z,9.26
2022-10-14T00:18:11.065Z,10.34
2022-10-14T00:19:11.067Z,9.14
2022-10-14T00:20:11.064Z,9.44
2022-10-14T00:21:11.078Z,9.76
2022-10-14T00:22:11.055Z,9.66
2022-10-14T00:23:11.060Z,8.90
2022-10-14T00:24:13.058Z,8.86
2022-10-14T00:25:11.060Z,9.12
2022-10-14T00:26:19.061Z,7.84
2022-10-14T00:27:11.058Z,10.58
2022-10-14T00:28:11.059Z,10.96
2022-10-14T00:29:14.058Z,9.32
2022-10-14T00:30:11.058Z,8.88
2022-10-14T00:31:11.062Z,8.84
2022-10-14T00:32:11.058Z,9.72
2022-10-14T00:33:11.062Z,8.92
2022-10-14T00:34:11.068Z,8.68
2022-10-14T00:35:11.062Z,9.38
2022-10-14T00:36:11.063Z,8.66
2022-10-14T00:37:11.069Z,10.10
2022-10-14T00:38:11.057Z,8.22
2022-10-14T00:39:11.063Z,9.52
2022-10-14T00:40:11.066Z,9.44
2022-10-14T00:41:13.061Z,8.00
2022-10-14T00:42:14.060Z,8.74
2022-10-14T00:43:13.059Z,8.76
2022-10-14T00:44:19.060Z,9.02
2022-10-14T00:45:14.060Z,8.60
2022-10-14T00:46:13.062Z,8.74
2022-10-14T00:47:11.068Z,9.44
2022-10-14T00:48:11.061Z,9.08
2022-10-14T00:49:19.063Z,10.14
2022-10-14T00:50:11.061Z,11.18
2022-10-14T00:51:11.068Z,10.64
2022-10-14T00:52:16.060Z,9.22
2022-10-14T00:53:11.065Z,10.12
2022-10-14T00:54:12.074Z,10.28
2022-10-14T00:55:14.063Z,10.68
2022-10-14T00:56:11.060Z,10.42
2022-10-14T00:57:11.065Z,9.96
2022-10-14T00:58:11.063Z,11.98
2022-10-14T00:59:11.066Z,10.78
2022-10-14T01:00:12.064Z,10.74
2022-10-14T01:01:11.153Z,10.86
2022-10-14T01:02:11.062Z,11.14
2022-10-14T01:03:15.065Z,11.08
2022-10-14T01:04:11.070Z,11.28
2022-10-14T01:05:11.061Z,10.76
2022-10-14T01:06:19.066Z,11.76
2022-10-14T01:07:19.409Z,12.24
2022-10-14T01:08:25.062Z,12.44
2022-10-14T01:09:25.062Z,11.70
2022-10-14T01:10:20.061Z,11.74
2022-10-14T01:11:20.065Z,12.30
2022-10-14T01:12:29.053Z,12.26
2022-10-14T01:13:24.855Z,11.08
2022-10-14T01:14:19.072Z,12.16
2022-10-14T01:15:19.064Z,11.92
2022-10-14T01:16:22.063Z,11.70
2022-10-14T01:17:22.066Z,12.38
2022-10-14T01:18:19.066Z,13.06
2022-10-14T01:19:19.077Z,11.48
2022-10-14T01:20:19.067Z,12.36
2022-10-14T01:21:22.057Z,12.78
2022-10-14T01:22:22.278Z,11.48
2022-10-14T01:23:19.059Z,11.96
2022-10-14T01:24:21.082Z,11.66
2022-10-14T01:25:19.065Z,12.90
2022-10-14T01:26:19.087Z,12.06
2022-10-14T01:27:19.056Z,12.92
2022-10-14T01:28:19.099Z,11.54
2022-10-14T01:29:19.059Z,10.48
2022-10-14T01:30:15.063Z,11.60
2022-10-14T01:31:13.074Z,11.40
2022-10-14T01:32:22.331Z,11.72
2022-10-14T01:33:21.074Z,14.52
2022-10-14T01:34:13.071Z,12.74
2022-10-14T01:35:21.067Z,13.18
2022-10-14T01:36:20.061Z,12.26
2022-10-14T01:37:15.079Z,12.58
2022-10-14T01:38:21.063Z,12.94
2022-10-14T01:39:20.060Z,12.02
2022-10-14T01:40:19.063Z,12.40
2022-10-14T01:41:18.070Z,14.00
2022-10-14T01:42:14.062Z,12.86
2022-10-14T01:43:12.060Z,13.44
2022-10-14T01:44:11.063Z,11.30
2022-10-14T01:45:17.062Z,12.94
2022-10-14T01:46:11.058Z,13.52
2022-10-14T01:47:13.063Z,12.74
2022-10-14T01:48:12.067Z,13.34
2022-10-14T01:49:13.059Z,13.44
2022-10-14T01:50:14.063Z,11.38
2022-10-14T01:51:15.070Z,11.14
2022-10-14T01:52:18.062Z,10.60
2022-10-14T01:53:14.082Z,12.62
2022-10-14T01:54:18.062Z,11.50
2022-10-14T01:55:15.071Z,11.70
2022-10-14T01:56:11.065Z,12.20
2022-10-14T01:57:15.058Z,12.44
2022-10-14T01:58:11.063Z,12.38
2022-10-14T01:59:12.063Z,12.34
2022-10-14T02:00:11.061Z,11.14
2022-10-14T02:01:11.064Z,11.64
2022-10-14T02:02:12.137Z,12.68
2022-10-14T02:03:12.091Z,13.36
2022-10-14T02:04:15.063Z,12.56
2022-10-14T02:05:19.063Z,12.52
2022-10-14T02:06:17.071Z,11.72
2022-10-14T02:07:19.063Z,11.92
2022-10-14T02:08:20.061Z,11.74
2022-10-14T02:09:19.066Z,11.78
2022-10-14T02:10:19.064Z,11.94
2022-10-14T02:11:16.072Z,12.00
2022-10-14T02:12:24.337Z,10.22
2022-10-14T02:13:19.062Z,11.80
2022-10-14T02:14:19.062Z,11.60
2022-10-14T02:15:19.063Z,14.98
2022-10-14T02:16:19.071Z,12.92
2022-10-14T02:17:19.065Z,11.32
2022-10-14T02:18:19.066Z,11.66
2022-10-14T02:19:16.064Z,12.20
2022-10-14T02:20:19.065Z,12.06
2022-10-14T02:21:18.060Z,11.36
2022-10-14T02:22:19.478Z,9.60
2022-10-14T02:23:18.060Z,11.90
2022-10-14T02:24:19.059Z,11.58
2022-10-14T02:25:16.062Z,11.48
2022-10-14T02:26:11.060Z,10.38
2022-10-14T02:27:13.059Z,13.04
2022-10-14T02:28:12.059Z,11.62
2022-10-14T02:29:11.063Z,11.82
2022-10-14T02:30:11.060Z,13.68
2022-10-14T02:31:14.056Z,12.90
2022-10-14T02:32:12.061Z,11.18
2022-10-14T02:33:11.062Z,11.34
2022-10-14T02:34:12.060Z,11.70
2022-10-14T02:35:11.124Z,12.34
2022-10-14T02:36:11.068Z,11.96
2022-10-14T02:37:12.060Z,11.10
2022-10-14T02:38:11.100Z,12.44
2022-10-14T02:39:13.069Z,11.72
2022-10-14T02:40:14.064Z,13.04
2022-10-14T02:41:13.063Z,12.62
2022-10-14T02:42:11.061Z,12.80
2022-10-14T02:43:13.062Z,13.52
2022-10-14T02:44:11.059Z,11.56
2022-10-14T02:45:11.066Z,14.44
2022-10-14T02:46:11.069Z,14.50
2022-10-14T02:47:11.063Z,13.36
2022-10-14T02:48:11.057Z,12.26
2022-10-14T02:49:11.064Z,14.42
2022-10-14T02:50:11.067Z,13.68
2022-10-14T02:51:11.064Z,15.48
2022-10-14T02:52:11.062Z,12.26
2022-10-14T02:53:12.062Z,13.72
2022-10-14T02:54:11.060Z,13.18
2022-10-14T02:55:11.063Z,13.58
2022-10-14T02:56:12.072Z,13.94
2022-10-14T02:57:11.060Z,15.56
2022-10-14T02:58:11.065Z,13.86
2022-10-14T02:59:11.067Z,13.38
2022-10-14T03:00:11.064Z,15.16
2022-10-14T03:01:11.086Z,13.26
2022-10-14T03:02:11.153Z,14.10
2022-10-14T03:03:11.063Z,12.44
2022-10-14T03:04:11.062Z,14.42
2022-10-14T03:05:11.068Z,12.22
2022-10-14T03:06:11.084Z,14.24
2022-10-14T03:07:11.062Z,11.70
2022-10-14T03:08:11.075Z,14.30
2022-10-14T03:09:11.071Z,14.52
2022-10-14T03:10:11.062Z,13.70
2022-10-14T03:11:11.064Z,14.48
2022-10-14T03:12:11.072Z,14.68
2022-10-14T03:13:11.070Z,13.88
2022-10-14T03:14:11.061Z,14.40
2022-10-14T03:15:11.066Z,13.46
2022-10-14T03:16:11.066Z,13.12
2022-10-14T03:17:11.061Z,13.62
2022-10-14T03:18:11.072Z,14.16
2022-10-14T03:19:11.065Z,13.28
2022-10-14T03:20:11.065Z,12.28
2022-10-14T03:21:11.056Z,13.98
2022-10-14T03:22:11.061Z,14.46
2022-10-14T03:23:11.057Z,14.26
2022-10-14T03:24:11.060Z,14.42
2022-10-14T03:25:11.066Z,14.08
2022-10-14T03:26:14.035Z,13.12
2022-10-14T03:27:11.061Z,15.26
2022-10-14T03:28:11.060Z,14.26
2022-10-14T03:29:11.059Z,12.78
2022-10-14T03:30:11.057Z,14.90
2022-10-14T03:31:11.057Z,14.62
2022-10-14T03:32:11.060Z,13.40
2022-10-14T03:33:14.745Z,13.10
2022-10-14T03:34:11.059Z,12.24
2022-10-14T03:35:11.069Z,14.46
2022-10-14T03:36:11.061Z,12.74
2022-10-14T03:37:11.059Z,12.16
2022-10-14T03:38:11.061Z,12.14
2022-10-14T03:39:11.061Z,13.94
2022-10-14T03:40:11.067Z,13.06
2022-10-14T03:41:11.060Z,13.10
2022-10-14T03:42:11.068Z,14.02
2022-10-14T03:43:11.062Z,12.96
2022-10-14T03:44:11.058Z,12.78
2022-10-14T03:45:11.062Z,12.88
2022-10-14T03:46:11.067Z,15.16
2022-10-14T03:47:11.056Z,12.86
2022-10-14T03:48:11.060Z,14.50
2022-10-14T03:49:11.064Z,14.98
2022-10-14T03:50:11.059Z,15.94
2022-10-14T03:51:11.062Z,14.46
2022-10-14T03:52:11.070Z,15.98
2022-10-14T03:53:11.066Z,19.08
2022-10-14T03:54:11.062Z,15.34
2022-10-14T03:55:11.063Z,14.50
2022-10-14T03:56:11.061Z,14.42
2022-10-14T03:57:11.064Z,14.16
2022-10-14T03:58:11.062Z,14.82
2022-10-14T03:59:11.064Z,15.18
2022-10-14T04:00:11.061Z,15.78
2022-10-14T04:01:11.065Z,14.52
2022-10-14T04:02:11.125Z,13.98
2022-10-14T04:03:11.062Z,14.10
2022-10-14T04:04:11.064Z,15.28
2022-10-14T04:05:11.072Z,15.00
2022-10-14T04:06:11.068Z,14.02
2022-10-14T04:07:11.058Z,13.38
2022-10-14T04:08:11.065Z,13.94
2022-10-14T04:09:11.064Z,15.34
2022-10-14T04:10:11.067Z,15.96
2022-10-14T04:11:11.063Z,13.80
2022-10-14T04:12:11.066Z,14.74
2022-10-14T04:13:11.063Z,14.36
2022-10-14T04:14:11.063Z,15.42
2022-10-14T04:15:11.065Z,13.62
2022-10-14T04:16:11.061Z,14.10
2022-10-14T04:17:11.065Z,15.04
2022-10-14T04:18:11.072Z,15.14
2022-10-14T04:19:11.063Z,13.70
2022-10-14T04:20:11.067Z,14.94
2022-10-14T04:21:12.066Z,13.06
2022-10-14T04:22:11.060Z,14.38
2022-10-14T04:23:11.060Z,13.64
2022-10-14T04:24:11.066Z,15.32
2022-10-14T04:25:11.061Z,14.68
2022-10-14T04:26:11.055Z,13.88
2022-10-14T04:27:11.067Z,14.44
2022-10-14T04:28:11.062Z,14.62
2022-10-14T04:29:11.061Z,15.16
2022-10-14T04:30:11.066Z,13.98
2022-10-14T04:31:11.061Z,14.52
2022-10-14T04:32:11.085Z,14.48
2022-10-14T04:33:11.085Z,12.88
2022-10-14T04:34:11.116Z,11.80
2022-10-14T04:35:11.059Z,10.86
2022-10-14T04:36:11.066Z,12.92
2022-10-14T04:37:11.063Z,12.90
2022-10-14T04:38:11.059Z,13.48
2022-10-14T04:39:11.059Z,12.26
2022-10-14T04:40:11.061Z,11.90
2022-10-14T04:41:11.059Z,13.68
2022-10-14T04:42:11.062Z,13.88
2022-10-14T04:43:11.068Z,12.40
2022-10-14T04:44:11.060Z,12.58
2022-10-14T04:45:11.063Z,12.54
2022-10-14T04:46:11.064Z,11.48
2022-10-14T04:47:11.062Z,13.46
2022-10-14T04:48:11.057Z,12.26
2022-10-14T04:49:12.063Z,12.20
2022-10-14T04:50:11.062Z,12.94
2022-10-14T04:51:11.061Z,12.38
2022-10-14T04:52:11.062Z,12.28
2022-10-14T04:53:13.669Z,12.56
2022-10-14T04:54:11.063Z,12.54
2022-10-14T04:55:11.063Z,13.94
2022-10-14T04:56:11.073Z,13.22
2022-10-14T04:57:11.062Z,10.66
2022-10-14T04:58:11.063Z,12.88
2022-10-14T04:59:11.069Z,10.96
2022-10-14T05:00:13.065Z,11.48
2022-10-14T05:01:11.066Z,10.92
2022-10-14T05:02:11.140Z,11.60
2022-10-14T05:03:11.069Z,11.78
2022-10-14T05:04:11.062Z,12.04
2022-10-14T05:05:11.070Z,11.62
2022-10-14T05:06:11.063Z,11.86
2022-10-14T05:07:11.063Z,14.00
2022-10-14T05:08:11.065Z,11.68
2022-10-14T05:09:11.063Z,12.06
2022-10-14T05:10:11.063Z,11.20
2022-10-14T05:11:11.067Z,12.28
2022-10-14T05:12:11.065Z,11.80
2022-10-14T05:13:11.063Z,11.78
2022-10-14T05:14:11.065Z,11.94
2022-10-14T05:15:11.074Z,11.44
2022-10-14T05:16:11.065Z,11.88
2022-10-14T05:17:11.064Z,12.36
2022-10-14T05:18:12.067Z,11.98
2022-10-14T05:19:11.076Z,11.46
2022-10-14T05:20:11.065Z,12.18
2022-10-14T05:21:11.065Z,11.20
2022-10-14T05:22:11.060Z,12.70
2022-10-14T05:23:11.054Z,11.52
2022-10-14T05:24:11.058Z,11.50
2022-10-14T05:25:11.060Z,12.02
2022-10-14T05:26:11.057Z,11.62
2022-10-14T05:27:11.059Z,12.92
2022-10-14T05:28:11.067Z,12.10
2022-10-14T05:29:11.063Z,12.32
2022-10-14T05:30:11.060Z,10.14
2022-10-14T05:31:11.066Z,11.70
2022-10-14T05:32:11.059Z,12.78
2022-10-14T05:33:11.061Z,12.10
2022-10-14T05:34:11.068Z,13.28
2022-10-14T05:35:11.061Z,13.00
2022-10-14T05:36:11.057Z,11.44
2022-10-14T05:37:11.062Z,11.56
2022-10-14T05:38:11.059Z,11.52
2022-10-14T05:39:11.060Z,11.72
2022-10-14T05:40:11.062Z,11.50
2022-10-14T05:41:11.077Z,11.06
2022-10-14T05:42:11.061Z,10.84
2022-10-14T05:43:11.063Z,11.12
2022-10-14T05:44:12.064Z,10.44
2022-10-14T05:45:11.059Z,12.24
2022-10-14T05:46:11.061Z,10.08
2022-10-14T05:47:11.068Z,10.32
2022-10-14T05:48:11.063Z,10.42
2022-10-14T05:49:11.058Z,11.60
2022-10-14T05:50:11.065Z,11.10
2022-10-14T05:51:11.063Z,11.80
2022-10-14T05:52:11.059Z,11.14
2022-10-14T05:53:11.064Z,9.58
2022-10-14T05:54:11.066Z,10.24
2022-10-14T05:55:11.058Z,10.88
2022-10-14T05:56:11.067Z,11.00
2022-10-14T05:57:11.063Z,10.66
2022-10-14T05:58:11.063Z,10.02
2022-10-14T05:59:11.062Z,9.60
2022-10-14T06:00:11.070Z,10.10
2022-10-14T06:01:11.060Z,9.80
2022-10-14T06:02:11.067Z,10.42
2022-10-14T06:03:12.118Z,11.34
2022-10-14T06:04:15.064Z,11.46
2022-10-14T06:05:11.063Z,9.54
2022-10-14T06:06:14.099Z,9.56
2022-10-14T06:07:11.064Z,9.56
2022-10-14T06:08:11.063Z,9.74
2022-10-14T06:09:11.554Z,10.22
2022-10-14T06:10:11.079Z,9.00
2022-10-14T06:11:11.062Z,10.20
2022-10-14T06:12:11.065Z,9.44
2022-10-14T06:13:11.073Z,9.70
2022-10-14T06:14:11.066Z,10.22
2022-10-14T06:15:11.060Z,9.38
2022-10-14T06:16:11.078Z,10.32
2022-10-14T06:17:11.065Z,10.22
2022-10-14T06:18:11.065Z,9.70
2022-10-14T06:19:11.063Z,9.34
2022-10-14T06:20:11.068Z,10.34
2022-10-14T06:21:11.056Z,8.04
2022-10-14T06:22:11.058Z,10.24
2022-10-14T06:23:11.066Z,8.90
2022-10-14T06:24:11.058Z,9.20
2022-10-14T06:25:11.061Z,9.44
2022-10-14T06:26:11.070Z,9.22
2022-10-14T06:27:11.059Z,8.90
2022-10-14T06:28:11.090Z,9.22
2022-10-14T06:29:11.083Z,8.06
2022-10-14T06:30:11.062Z,8.24
2022-10-14T06:31:11.080Z,8.52
2022-10-14T06:32:11.059Z,8.50
2022-10-14T06:33:11.066Z,8.34
2022-10-14T06:34:11.058Z,7.62
2022-10-14T06:35:11.062Z,9.26
2022-10-14T06:36:11.061Z,8.68
2022-10-14T06:37:11.062Z,7.80
2022-10-14T06:38:11.055Z,8.84
2022-10-14T06:39:11.066Z,7.72
2022-10-14T06:40:11.062Z,8.98
2022-10-14T06:41:11.059Z,8.14
2022-10-14T06:42:20.807Z,7.86
2022-10-14T06:43:13.111Z,7.32
2022-10-14T06:44:11.061Z,8.26
2022-10-14T06:45:11.056Z,8.26
2022-10-14T06:46:11.059Z,7.14
2022-10-14T06:47:11.066Z,7.56
2022-10-14T06:48:11.061Z,7.70
2022-10-14T06:49:11.062Z,7.94
2022-10-14T06:50:11.069Z,8.04
2022-10-14T06:51:11.065Z,8.36
2022-10-14T06:52:11.058Z,7.74
2022-10-14T06:53:11.064Z,8.02
2022-10-14T06:54:11.062Z,7.94
2022-10-14T06:55:11.061Z,7.48
2022-10-14T06:56:11.062Z,7.80
2022-10-14T06:57:11.062Z,6.74
2022-10-14T06:58:11.065Z,6.72
2022-10-14T06:59:11.061Z,6.88
2022-10-14T07:00:11.064Z,7.40
2022-10-14T07:01:11.064Z,7.72
2022-10-14T07:02:11.063Z,7.96
2022-10-14T07:03:11.066Z,7.70
2022-10-14T07:04:11.061Z,7.78
2022-10-14T07:05:11.062Z,7.12
2022-10-14T07:06:11.066Z,7.60
2022-10-14T07:07:11.062Z,7.48
2022-10-14T07:08:14.452Z,8.56
2022-10-14T07:09:11.070Z,7.90
2022-10-14T07:10:11.061Z,7.62
2022-10-14T07:11:11.065Z,7.56
2022-10-14T07:12:11.071Z,7.70
2022-10-14T07:13:11.064Z,7.70
2022-10-14T07:14:11.065Z,7.56
2022-10-14T07:15:11.070Z,7.44
2022-10-14T07:16:11.063Z,7.98
2022-10-14T07:17:11.060Z,7.06
2022-10-14T07:18:11.072Z,10.02
2022-10-14T07:19:11.066Z,8.20
2022-10-14T07:20:11.061Z,9.86
2022-10-14T07:21:11.063Z,7.32
2022-10-14T07:22:11.058Z,7.78
2022-10-14T07:23:11.058Z,7.28
2022-10-14T07:24:11.057Z,7.50
2022-10-14T07:25:11.057Z,9.74
2022-10-14T07:26:11.060Z,8.04
2022-10-14T07:27:11.059Z,7.62
2022-10-14T07:28:11.059Z,8.32
2022-10-14T07:29:11.056Z,8.28
2022-10-14T07:30:13.835Z,8.28
2022-10-14T07:31:13.092Z,8.68
2022-10-14T07:32:11.059Z,8.82
2022-10-14T07:33:11.060Z,8.42
2022-10-14T07:34:11.067Z,7.14
2022-10-14T07:35:11.059Z,8.46
2022-10-14T07:36:11.061Z,9.30
2022-10-14T07:37:11.067Z,7.94
2022-10-14T07:38:11.064Z,8.88
2022-10-14T07:39:11.058Z,8.02
2022-10-14T07:40:11.059Z,7.62
2022-10-14T07:41:14.063Z,7.30
2022-10-14T07:42:11.119Z,8.16
2022-10-14T07:43:11.058Z,8.12
2022-10-14T07:44:13.068Z,6.72
2022-10-14T07:45:11.061Z,8.12
2022-10-14T07:46:11.058Z,8.18
2022-10-14T07:47:11.060Z,8.04
2022-10-14T07:48:11.064Z,7.56
2022-10-14T07:49:15.068Z,7.42
2022-10-14T07:50:11.063Z,7.44
2022-10-14T07:51:11.063Z,6.98
2022-10-14T07:52:11.062Z,7.48
2022-10-14T07:53:11.062Z,6.98
2022-10-14T07:54:14.063Z,7.38
2022-10-14T07:55:11.060Z,7.22
2022-10-14T07:56:11.063Z,6.74
2022-10-14T07:57:11.070Z,6.80
2022-10-14T07:58:11.060Z,5.86
2022-10-14T07:59:11.063Z,7.10
2022-10-14T08:00:11.069Z,7.22
2022-10-14T08:01:11.060Z,6.52
2022-10-14T08:02:12.112Z,7.46
2022-10-14T08:03:11.070Z,8.40
2022-10-14T08:04:11.061Z,7.08
2022-10-14T08:05:36.459Z,6.90
2022-10-14T08:06:13.203Z,7.04
2022-10-14T08:07:11.064Z,6.52
2022-10-14T08:08:11.061Z,7.08
2022-10-14T08:09:11.065Z,6.16
2022-10-14T08:10:11.065Z,7.16
2022-10-14T08:11:17.061Z,7.12
2022-10-14T08:12:11.070Z,8.48
2022-10-14T08:13:11.082Z,6.26
2022-10-14T08:14:11.062Z,7.22
2022-10-14T08:15:11.065Z,7.24
2022-10-14T08:16:18.075Z,6.42
2022-10-14T08:17:11.065Z,7.68
2022-10-14T08:18:11.062Z,6.62
2022-10-14T08:19:14.241Z,7.56
2022-10-14T08:20:11.132Z,7.42
2022-10-14T08:21:11.056Z,7.16
2022-10-14T08:22:11.065Z,6.80
2022-10-14T08:23:11.065Z,7.78
2022-10-14T08:24:11.059Z,6.90
2022-10-14T08:25:11.055Z,7.30
2022-10-14T08:26:19.065Z,7.52
2022-10-14T08:27:11.065Z,6.84
2022-10-14T08:28:11.058Z,8.38
2022-10-14T08:29:12.059Z,7.88
2022-10-14T08:30:12.066Z,6.34
2022-10-14T08:31:11.060Z,6.80
2022-10-14T08:32:11.056Z,7.22
2022-10-14T08:33:11.061Z,7.26
2022-10-14T08:34:11.077Z,6.84
2022-10-14T08:35:11.058Z,6.18
2022-10-14T08:36:11.059Z,7.88
2022-10-14T08:37:11.065Z,6.14
2022-10-14T08:38:11.058Z,7.80
2022-10-14T08:39:11.112Z,6.90
2022-10-14T08:40:15.071Z,6.82
2022-10-14T08:41:19.062Z,6.36
2022-10-14T08:42:19.308Z,7.12
2022-10-14T08:43:19.069Z,8.46
2022-10-14T08:44:19.063Z,6.40
2022-10-14T08:45:17.059Z,7.14
2022-10-14T08:46:19.058Z,5.84
2022-10-14T08:47:15.339Z,6.48
2022-10-14T08:48:15.072Z,6.46
2022-10-14T08:49:21.062Z,5.84
2022-10-14T08:50:21.083Z,5.32
2022-10-14T08:51:13.057Z,5.08
2022-10-14T08:52:15.358Z,5.40
2022-10-14T08:53:19.063Z,4.84
2022-10-14T08:54:14.107Z,5.88
2022-10-14T08:55:21.062Z,5.00
2022-10-14T08:56:11.066Z,5.32
2022-10-14T08:57:16.066Z,4.80
2022-10-14T08:58:19.175Z,4.60
2022-10-14T08:59:15.059Z,5.16
2022-10-14T09:00:12.067Z,4.50
2022-10-14T09:01:19.063Z,5.04
2022-10-14T09:02:19.436Z,4.92
2022-10-14T09:03:20.064Z,5.50
2022-10-14T09:04:13.134Z,4.34
2022-10-14T09:05:15.064Z,4.00
2022-10-14T09:06:19.062Z,3.80
2022-10-14T09:07:15.287Z,4.88
2022-10-14T09:08:15.072Z,5.12
2022-10-14T09:09:18.062Z,4.66
2022-10-14T09:10:14.062Z,5.06
2022-10-14T09:11:16.067Z,3.96
2022-10-14T09:12:14.066Z,5.14
2022-10-14T09:13:16.063Z,4.58
2022-10-14T09:14:13.065Z,4.22
2022-10-14T09:15:20.077Z,5.32
2022-10-14T09:16:19.065Z,5.26
2022-10-14T09:17:19.064Z,4.66
2022-10-14T09:18:19.063Z,4.38
2022-10-14T09:19:18.067Z,5.40
2022-10-14T09:20:21.078Z,5.80
2022-10-14T09:21:27.839Z,5.52
2022-10-14T09:22:16.814Z,4.80
2022-10-14T09:23:18.055Z,5.08
2022-10-14T09:24:15.061Z,5.40
2022-10-14T09:25:15.066Z,5.36
2022-10-14T09:26:19.060Z,4.94
2022-10-14T09:27:20.365Z,4.84
2022-10-14T09:28:11.058Z,4.50
2022-10-14T09:29:19.062Z,4.40
2022-10-14T09:30:17.075Z,5.46
2022-10-14T09:31:12.060Z,5.38
2022-10-14T09:32:14.055Z,4.64
2022-10-14T09:33:15.064Z,4.34
2022-10-14T09:34:18.059Z,4.84
2022-10-14T09:35:19.061Z,6.24
2022-10-14T09:36:17.057Z,7.10
2022-10-14T09:37:19.532Z,6.22
2022-10-14T09:38:11.070Z,5.46
2022-10-14T09:39:11.059Z,4.54
2022-10-14T09:40:20.060Z,4.84
2022-10-14T09:41:14.069Z,3.92
2022-10-14T09:42:17.062Z,4.38
2022-10-14T09:43:18.058Z,5.08
2022-10-14T09:44:19.061Z,5.22
2022-10-14T09:45:14.083Z,4.46
2022-10-14T09:46:14.074Z,4.12
2022-10-14T09:47:13.223Z,3.98
2022-10-14T09:48:17.085Z,4.10
2022-10-14T09:49:18.078Z,4.70
2022-10-14T09:50:14.066Z,4.32
2022-10-14T09:51:16.071Z,3.90
2022-10-14T09:52:17.065Z,4.56
2022-10-14T09:53:16.089Z,3.98
2022-10-14T09:54:21.070Z,3.54
2022-10-14T09:55:19.062Z,3.10
2022-10-14T09:56:11.102Z,4.28
2022-10-14T09:57:15.312Z,4.60
2022-10-14T09:58:17.082Z,3.94
2022-10-14T09:59:19.059Z,3.92
2022-10-14T10:00:19.062Z,4.00
2022-10-14T10:01:15.083Z,4.16
2022-10-14T10:02:21.068Z,4.28
2022-10-14T10:03:19.066Z,4.90
2022-10-14T10:04:19.068Z,6.22
2022-10-14T10:05:19.064Z,6.52
2022-10-14T10:06:11.072Z,5.86
2022-10-14T10:07:19.097Z,5.98
2022-10-14T10:08:18.073Z,4.42
2022-10-14T10:09:18.095Z,4.06
2022-10-14T10:10:18.108Z,3.68
2022-10-14T10:11:11.077Z,4.26
2022-10-14T10:12:22.064Z,3.52
2022-10-14T10:13:19.066Z,3.56
2022-10-14T10:14:21.073Z,5.20
2022-10-14T10:15:18.083Z,4.62
2022-10-14T10:16:19.067Z,3.30
2022-10-14T10:17:18.064Z,3.66
2022-10-14T10:18:19.068Z,2.62
2022-10-14T10:19:19.065Z,2.64
2022-10-14T10:20:19.086Z,3.00
2022-10-14T10:21:18.065Z,2.86
2022-10-14T10:22:21.077Z,2.74
2022-10-14T10:23:19.063Z,2.76
2022-10-14T10:24:19.062Z,3.04
2022-10-14T10:25:18.060Z,2.74
2022-10-14T10:26:15.060Z,2.58
2022-10-14T10:27:20.442Z,2.88
2022-10-14T10:28:21.152Z,2.34
2022-10-14T10:29:19.071Z,2.56
2022-10-14T10:30:22.061Z,2.32
2022-10-14T10:31:19.200Z,2.50
2022-10-14T10:32:19.205Z,2.18
2022-10-14T10:33:19.059Z,2.66
2022-10-14T10:34:19.075Z,2.42
2022-10-14T10:35:21.061Z,2.62
2022-10-14T10:37:19.206Z,2.32
2022-10-14T10:38:18.064Z,2.30
2022-10-14T10:39:21.062Z,2.20
2022-10-14T10:40:21.063Z,2.96
2022-10-14T10:41:19.058Z,2.06
2022-10-14T10:42:23.301Z,2.20
2022-10-14T10:43:19.062Z,2.52
2022-10-14T10:44:21.077Z,2.34
2022-10-14T10:45:19.071Z,1.80
2022-10-14T10:46:21.067Z,2.58
2022-10-14T10:47:21.068Z,1.58
2022-10-14T10:48:19.070Z,1.72
2022-10-14T10:49:19.077Z,1.80
2022-10-14T10:50:20.072Z,2.26
2022-10-14T10:51:19.072Z,2.24
2022-10-14T10:52:22.172Z,1.66
2022-10-14T10:53:19.072Z,2.44
2022-10-14T10:54:19.074Z,2.56
2022-10-14T10:55:21.078Z,2.04
2022-10-14T10:56:20.073Z,2.30
2022-10-14T10:57:21.354Z,2.16
2022-10-14T10:58:19.070Z,2.34
2022-10-14T11:00:16.145Z,1.52
2022-10-14T11:01:19.244Z,1.86
2022-10-14T11:02:19.333Z,1.98
2022-10-14T11:03:19.073Z,1.40
2022-10-14T11:04:19.079Z,1.72
2022-10-14T11:05:21.076Z,1.26
2022-10-14T11:06:23.073Z,1.90
2022-10-14T11:07:27.088Z,2.14
2022-10-14T11:08:27.159Z,1.50
2022-10-14T11:09:24.071Z,1.94
2022-10-14T11:10:23.075Z,1.80
2022-10-14T11:11:25.072Z,1.46
2022-10-14T11:12:25.316Z,1.34
2022-10-14T11:13:19.080Z,1.26
2022-10-14T11:14:21.072Z,2.38
2022-10-14T11:16:19.071Z,1.62
2022-10-14T11:17:19.358Z,1.64
2022-10-14T11:18:21.082Z,1.26
2022-10-14T11:19:21.075Z,1.96
2022-10-14T11:20:23.077Z,1.60
2022-10-14T11:21:21.063Z,1.18
2022-10-14T11:22:19.337Z,1.70
2022-10-14T11:23:19.066Z,1.26
2022-10-14T11:24:21.071Z,1.12
2022-10-14T11:25:21.076Z,2.56
2022-10-14T11:26:19.066Z,1.82
2022-10-14T11:27:23.990Z,1.28
2022-10-14T11:28:20.127Z,1.90
2022-10-14T11:29:21.062Z,1.38
2022-10-14T11:30:17.064Z,1.40
2022-10-14T11:31:19.062Z,0.82
2022-10-14T11:32:19.070Z,1.28
2022-10-14T11:33:21.062Z,1.28
2022-10-14T11:34:19.059Z,0.98
2022-10-14T11:35:19.073Z,2.02
2022-10-14T11:36:19.112Z,0.90
2022-10-14T11:37:21.353Z,1.48
2022-10-14T11:38:21.064Z,2.02
2022-10-14T11:39:19.113Z,1.46
2022-10-14T11:40:19.075Z,1.34
2022-10-14T11:41:18.120Z,1.12
2022-10-14T11:42:23.373Z,1.56
2022-10-14T11:43:19.062Z,1.98
2022-10-14T11:44:21.063Z,1.40
2022-10-14T11:45:21.491Z,1.52
2022-10-14T11:46:16.064Z,2.20
2022-10-14T11:47:21.456Z,1.44
2022-10-14T11:48:20.064Z,1.60
2022-10-14T11:49:22.066Z,1.94
2022-10-14T11:50:18.066Z,1.14
2022-10-14T11:51:19.075Z,1.36
2022-10-14T11:52:17.067Z,1.48
2022-10-14T11:53:19.063Z,1.22
2022-10-14T11:54:19.061Z,1.48
2022-10-14T11:55:17.063Z,1.18
2022-10-14T11:56:21.082Z,1.12
2022-10-14T11:57:19.127Z,1.54
2022-10-14T11:58:21.063Z,1.06
2022-10-14T11:59:19.061Z,1.08
2022-10-14T12:00:16.296Z,1.14
2022-10-14T12:01:12.074Z,1.58
2022-10-14T12:02:19.379Z,0.82
2022-10-14T12:03:21.060Z,1.36
2022-10-14T12:04:19.066Z,0.74
2022-10-14T12:05:19.073Z,1.02
2022-10-14T12:06:19.065Z,0.98
2022-10-14T12:07:14.068Z,1.04
2022-10-14T12:08:19.062Z,1.52
2022-10-14T12:09:21.065Z,1.14
2022-10-14T12:10:19.073Z,1.14
2022-10-14T12:11:21.067Z,1.14
2022-10-14T12:12:16.068Z,1.16
2022-10-14T12:13:15.069Z,1.18
2022-10-14T12:14:19.068Z,1.42
2022-10-14T12:15:18.098Z,1.92
2022-10-14T12:16:14.068Z,0.94
2022-10-14T12:17:19.226Z,1.12
2022-10-14T12:18:11.069Z,1.60
2022-10-14T12:19:12.075Z,1.24
2022-10-14T12:20:19.071Z,1.08
2022-10-14T12:21:21.063Z,1.38
2022-10-14T12:22:16.058Z,1.38
2022-10-14T12:23:14.068Z,1.40
2022-10-14T12:24:14.060Z,0.98
2022-10-14T12:25:14.055Z,1.14
2022-10-14T12:26:21.061Z,1.54
2022-10-14T12:27:12.068Z,1.26
2022-10-14T12:28:12.063Z,1.26
2022-10-14T12:29:17.061Z,1.18
2022-10-14T12:30:21.062Z,1.26
2022-10-14T12:31:19.072Z,1.06
2022-10-14T12:32:21.615Z,1.48
2022-10-14T12:33:13.058Z,1.00
2022-10-14T12:34:21.061Z,1.24
2022-10-14T12:35:19.065Z,1.34
2022-10-14T12:36:19.076Z,0.90
2022-10-14T12:37:19.278Z,1.12
2022-10-14T12:38:12.060Z,1.14
2022-10-14T12:39:21.062Z,1.68
2022-10-14T12:40:19.068Z,1.34
2022-10-14T12:41:19.061Z,1.50
2022-10-14T12:42:14.062Z,0.86
2022-10-14T12:43:16.064Z,1.40
2022-10-14T12:44:16.070Z,1.20
2022-10-14T12:45:15.062Z,1.90
2022-10-14T12:46:15.062Z,1.80
2022-10-14T12:47:21.320Z,1.66
2022-10-14T12:48:16.066Z,0.88
2022-10-14T12:49:19.063Z,1.22
2022-10-14T12:50:19.063Z,1.26
2022-10-14T12:51:19.066Z,1.92
2022-10-14T12:52:15.071Z,0.98
2022-10-14T12:53:21.066Z,0.92
2022-10-14T12:54:15.067Z,1.04
2022-10-14T12:55:18.065Z,1.68
2022-10-14T12:56:11.066Z,2.20
2022-10-14T12:57:19.393Z,1.62
2022-10-14T12:58:19.066Z,1.32
2022-10-14T12:59:21.064Z,1.16
2022-10-14T13:00:19.060Z,1.34
2022-10-14T13:01:18.138Z,1.28
2022-10-14T13:02:19.262Z,0.88
2022-10-14T13:03:18.128Z,1.26
2022-10-14T13:04:19.065Z,0.70
2022-10-14T13:05:18.061Z,0.90
2022-10-14T13:06:19.064Z,1.14
2022-10-14T13:07:39.303Z,1.48
2022-10-14T13:08:24.093Z,1.10
2022-10-14T13:09:17.069Z,0.82
2022-10-14T13:10:19.066Z,1.04
2022-10-14T13:11:14.068Z,1.00
2022-10-14T13:12:19.069Z,0.98
2022-10-14T13:13:19.079Z,0.54
2022-10-14T13:14:19.068Z,0.68
2022-10-14T13:15:19.067Z,0.80
2022-10-14T13:16:19.068Z,0.62